Time;durP1;ratioP1;P1;durP2;ratioP2;P2;SDS_P1;SDS_P2;PMS_P1;PMS_P2;Temp;Humidity;BMP_temperature;BMP_pressure;BME280_temperature;BME280_humidity;BME280_pressure;Samples;Min_cycle;Max_cycle;Signal;HPM_P1;HPM_P2
2022/07/21 00:01:10;;;;;;;19.48;14.00;;;23.40;71.70;;;;;;5114632;28;20036;-74
2022/07/21 00:03:36;;;;;;;20.05;13.52;;;23.40;71.80;;;;;;5114625;28;20034;-74
2022/07/21 00:06:03;;;;;;;20.88;14.00;;;23.30;71.80;;;;;;5114334;28;20036;-74
2022/07/21 00:08:29;;;;;;;22.73;14.32;;;23.20;72.20;;;;;;5114467;28;20020;-74
2022/07/21 00:10:54;;;;;;;19.70;13.45;;;23.30;72.20;;;;;;5096684;28;20029;-74
2022/07/21 00:13:20;;;;;;;19.70;12.63;;;23.20;72.00;;;;;;5114416;28;20020;-74
2022/07/21 00:15:46;;;;;;;17.77;12.07;;;23.20;72.40;;;;;;5114374;28;20032;-74
2022/07/21 00:18:12;;;;;;;17.83;11.82;;;23.00;72.00;;;;;;5114326;28;20039;-74
2022/07/21 00:20:38;;;;;;;18.02;10.38;;;22.90;71.70;;;;;;5114249;28;20020;-74
2022/07/21 00:23:04;;;;;;;17.15;10.40;;;22.90;71.40;;;;;;5114358;28;20047;-74
2022/07/21 00:25:29;;;;;;;14.68;10.30;;;22.80;71.50;;;;;;5114120;28;20062;-74
2022/07/21 00:27:55;;;;;;;14.75;9.95;;;22.70;71.30;;;;;;5114056;28;20024;-74
2022/07/21 00:30:21;;;;;;;13.50;8.77;;;22.70;71.40;;;;;;5114116;28;20088;-74
2022/07/21 00:32:47;;;;;;;13.27;8.57;;;22.60;71.30;;;;;;5114097;28;20024;-74
2022/07/21 00:35:13;;;;;;;13.52;8.80;;;22.50;71.50;;;;;;5114001;28;20028;-74
2022/07/21 00:37:39;;;;;;;12.25;7.65;;;22.50;71.50;;;;;;5113974;28;20035;-74
2022/07/21 00:40:08;;;;;;;12.52;8.75;;;22.40;71.90;;;;;;5096107;28;20020;-74
2022/07/21 00:42:34;;;;;;;10.55;8.27;;;22.30;71.90;;;;;;5113866;28;20076;-74
2022/07/21 00:45:01;;;;;;;12.82;8.57;;;22.30;72.00;;;;;;5113998;28;20032;-74
2022/07/21 00:47:28;;;;;;;13.13;8.50;;;22.30;71.80;;;;;;5096057;28;20028;-74
2022/07/21 00:49:55;;;;;;;12.82;8.13;;;22.30;71.80;;;;;;5113818;28;20046;-74
2022/07/21 00:52:21;;;;;;;12.35;8.50;;;22.20;71.80;;;;;;5113787;28;20027;-74
2022/07/21 00:54:47;;;;;;;12.77;9.02;;;22.20;71.80;;;;;;5113877;28;20032;-74
2022/07/21 00:57:13;;;;;;;12.07;8.35;;;22.20;71.90;;;;;;5095805;28;20047;-74
2022/07/21 00:59:40;;;;;;;13.48;8.98;;;22.20;72.10;;;;;;5113664;28;20032;-74
2022/07/21 01:02:06;;;;;;;14.00;8.82;;;22.20;72.00;;;;;;5113653;28;20020;-74
2022/07/21 01:04:32;;;;;;;11.85;8.70;;;22.20;71.90;;;;;;5113596;28;20043;-75
2022/07/21 01:07:00;;;;;;;11.73;8.73;;;22.20;71.70;;;;;;5113341;28;20044;-75
2022/07/21 01:09:26;;;;;;;14.77;8.95;;;22.30;71.50;;;;;;5113599;28;20024;-75
2022/07/21 01:11:51;;;;;;;13.82;8.90;;;22.20;71.60;;;;;;5113555;28;20077;-75
2022/07/21 01:14:18;;;;;;;13.18;8.73;;;22.30;71.60;;;;;;5113524;28;20044;-75
2022/07/21 01:16:44;;;;;;;12.60;8.75;;;22.20;71.50;;;;;;5117662;28;20028;-74
2022/07/21 01:19:10;;;;;;;12.55;8.05;;;22.20;71.40;;;;;;5120257;28;20437;-74
2022/07/21 01:21:41;;;;;;;12.38;8.90;;;22.30;71.60;;;;;;5120351;28;20035;-75
2022/07/21 01:24:07;;;;;;;11.15;8.05;;;22.30;72.50;;;;;;5120405;28;20024;-75
2022/07/21 01:26:48;;;;;;;14.80;8.23;;;22.20;71.60;;;;;;5120121;28;20035;-74
2022/07/21 01:29:15;;;;;;;13.55;8.77;;;22.20;71.50;;;;;;5120299;28;20051;-74
2022/07/21 01:31:43;;;;;;;14.15;8.52;;;22.10;71.80;;;;;;5120137;28;20108;-74
2022/07/21 01:34:09;;;;;;;14.07;8.90;;;22.10;71.70;;;;;;5120142;28;20031;-74
2022/07/21 01:36:35;;;;;;;12.90;8.45;;;22.00;72.10;;;;;;5120099;28;20486;-74
2022/07/21 01:41:45;;;;;;;13.35;8.93;;;21.80;72.70;;;;;;5120327;28;20061;-74
2022/07/21 01:44:12;;;;;;;13.27;8.35;;;21.90;72.60;;;;;;5120171;28;20051;-74
2022/07/21 01:46:42;;;;;;;15.18;9.13;;;21.90;72.70;;;;;;5119912;28;20020;-75
2022/07/21 01:49:08;;;;;;;16.30;8.80;;;21.80;73.10;;;;;;5119984;28;20083;-74
2022/07/21 01:51:34;;;;;;;12.48;8.63;;;21.60;73.40;;;;;;5085310;28;20080;-74
2022/07/21 01:54:00;;;;;;;17.05;9.88;;;21.70;74.40;;;;;;5119966;28;20020;-74
2022/07/21 01:56:26;;;;;;;14.05;9.85;;;21.70;73.20;;;;;;5119934;28;20047;-73
2022/07/21 01:58:54;;;;;;;12.95;8.32;;;21.80;73.30;;;;;;5120028;28;20119;-73
2022/07/21 02:01:21;;;;;;;15.07;8.95;;;21.70;73.10;;;;;;5119861;28;20039;-74
2022/07/21 02:03:48;;;;;;;14.93;8.80;;;21.80;73.10;;;;;;5119846;28;20032;-74
2022/07/21 02:06:14;;;;;;;14.57;9.55;;;21.80;72.90;;;;;;5119496;28;20078;-74
2022/07/21 02:08:44;;;;;;;13.48;8.73;;;21.80;72.70;;;;;;5102038;28;20051;-73
2022/07/21 02:11:10;;;;;;;11.13;7.95;;;21.80;72.60;;;;;;5119802;28;20024;-74
2022/07/21 02:13:37;;;;;;;14.68;9.23;;;21.90;72.90;;;;;;5119785;28;20016;-74
2022/07/21 02:16:03;;;;;;;15.18;9.02;;;21.80;73.20;;;;;;5119739;28;20028;-74
2022/07/21 02:18:29;;;;;;;14.82;9.73;;;21.60;73.90;;;;;;5119649;28;20024;-74
2022/07/21 02:20:55;;;;;;;15.43;10.07;;;21.40;74.60;;;;;;5101825;28;20028;-74
2022/07/21 02:23:22;;;;;;;15.57;9.32;;;21.30;75.30;;;;;;5119682;28;20032;-74
2022/07/21 02:25:48;;;;;;;15.70;9.55;;;21.30;75.70;;;;;;5119597;28;20024;-74
2022/07/21 02:28:14;;;;;;;15.77;9.68;;;21.30;75.80;;;;;;5116192;28;20050;-75
2022/07/21 02:30:40;;;;;;;14.50;9.68;;;21.30;75.70;;;;;;5098406;28;20032;-74
2022/07/21 02:33:06;;;;;;;13.80;9.70;;;21.30;75.60;;;;;;5116357;28;20028;-74
2022/07/21 02:35:32;;;;;;;16.63;10.40;;;21.30;75.40;;;;;;5116304;28;20031;-75
2022/07/21 02:37:58;;;;;;;13.23;8.82;;;21.30;75.40;;;;;;5116277;28;20049;-75
2022/07/21 02:40:23;;;;;;;14.90;9.40;;;21.30;75.40;;;;;;5116225;28;20024;-75
2022/07/21 02:42:49;;;;;;;14.43;10.10;;;21.30;75.80;;;;;;5098424;28;20048;-74
2022/07/21 02:45:15;;;;;;;16.00;10.65;;;21.20;76.00;;;;;;5115988;28;20016;-75
2022/07/21 02:47:56;;;;;;;16.10;10.25;;;21.00;76.70;;;;;;5116094;28;20043;-74
2022/07/21 02:50:27;;;;;;;17.88;10.32;;;21.00;77.20;;;;;;5116026;28;20021;-74
2022/07/21 02:53:01;;;;;;;15.75;9.88;;;20.90;77.90;;;;;;5116031;28;20020;-74
2022/07/21 02:55:27;;;;;;;16.67;10.10;;;20.80;78.20;;;;;;5116164;28;20040;-74
2022/07/21 02:58:07;;;;;;;14.30;10.02;;;20.70;78.50;;;;;;5115899;28;20024;-74
2022/07/21 03:00:35;;;;;;;19.67;10.38;;;20.80;78.30;;;;;;5116013;28;20044;-74
2022/07/21 03:03:01;;;;;;;16.25;10.32;;;20.80;78.30;;;;;;5115708;28;20028;-74
2022/07/21 03:05:26;;;;;;;15.95;9.65;;;20.90;78.20;;;;;;5115490;28;20070;-74
2022/07/21 03:07:52;;;;;;;15.75;9.60;;;21.00;78.00;;;;;;5097805;28;20467;-74
2022/07/21 03:10:17;;;;;;;16.77;10.23;;;21.00;78.10;;;;;;5097823;28;20028;-74
2022/07/21 03:12:43;;;;;;;15.55;10.05;;;21.00;78.30;;;;;;5097754;28;20024;-74
2022/07/21 03:15:09;;;;;;;15.95;9.70;;;20.90;78.20;;;;;;5115565;28;20085;-74
2022/07/21 03:17:35;;;;;;;15.30;9.80;;;20.90;78.50;;;;;;5115520;28;20077;-74
2022/07/21 03:20:00;;;;;;;17.70;9.98;;;20.80;78.70;;;;;;5115453;28;20052;-74
2022/07/21 03:22:26;;;;;;;17.70;10.85;;;20.60;79.50;;;;;;5115404;28;20035;-74
2022/07/21 03:24:52;;;;;;;17.70;10.68;;;20.50;80.70;;;;;;5115372;28;20040;-74
2022/07/21 03:27:18;;;;;;;18.95;10.57;;;20.50;80.20;;;;;;5115243;28;20036;-74
2022/07/21 03:29:43;;;;;;;17.27;10.13;;;20.60;81.00;;;;;;5115203;28;20020;-74
2022/07/21 03:32:09;;;;;;;17.27;10.80;;;20.50;80.50;;;;;;5115238;28;20036;-74
2022/07/21 03:34:35;;;;;;;20.40;11.02;;;20.50;80.20;;;;;;5115167;28;20029;-74
2022/07/21 03:37:00;;;;;;;18.38;10.15;;;20.50;80.30;;;;;;5115156;28;20083;-74
2022/07/21 03:39:26;;;;;;;15.85;9.95;;;20.50;80.60;;;;;;5096882;28;20048;-75
2022/07/21 03:41:52;;;;;;;15.90;10.32;;;20.50;80.60;;;;;;5115033;28;20092;-74
2022/07/21 03:44:17;;;;;;;17.75;10.80;;;20.60;80.20;;;;;;5115143;28;20028;-74
2022/07/21 03:46:43;;;;;;;17.05;10.07;;;20.60;80.30;;;;;;5114885;28;20101;-74
2022/07/21 03:49:09;;;;;;;16.95;9.90;;;20.60;80.00;;;;;;5115031;28;20027;-74
2022/07/21 03:51:34;;;;;;;16.30;10.43;;;20.60;80.40;;;;;;5114834;28;20024;-74
2022/07/21 03:54:01;;;;;;;16.98;10.75;;;20.60;80.60;;;;;;5114812;28;20043;-74
2022/07/21 03:56:27;;;;;;;20.38;13.55;;;20.50;80.40;;;;;;5114772;28;20016;-74
2022/07/21 03:58:53;;;;;;;20.05;12.43;;;20.50;80.80;;;;;;5114721;28;20034;-74
2022/07/21 04:01:18;;;;;;;19.73;12.15;;;20.40;81.00;;;;;;5114668;28;20085;-74
2022/07/21 04:03:44;;;;;;;22.40;14.48;;;20.40;81.20;;;;;;5114622;28;20056;-74
2022/07/21 04:06:10;;;;;;;28.77;17.98;;;20.30;81.70;;;;;;5114307;28;20100;-74
2022/07/21 04:08:39;;;;;;;29.50;17.65;;;20.30;82.80;;;;;;5114508;28;20012;-74
2022/07/21 04:11:05;;;;;;;25.75;16.27;;;20.20;82.20;;;;;;5114459;28;20051;-74
2022/07/21 04:13:31;;;;;;;24.05;14.50;;;20.20;82.40;;;;;;5114459;28;20028;-74
2022/07/21 04:15:56;;;;;;;20.50;13.80;;;20.20;82.70;;;;;;5114384;28;20030;-74
2022/07/21 04:18:22;;;;;;;19.77;12.48;;;20.20;82.50;;;;;;5114334;28;20032;-74
2022/07/21 04:20:48;;;;;;;18.55;11.93;;;20.20;83.00;;;;;;5114303;28;20054;-74
2022/07/21 04:23:13;;;;;;;19.35;11.48;;;20.10;83.00;;;;;;5114263;28;20106;-74
2022/07/21 04:25:39;;;;;;;21.13;11.70;;;20.20;83.10;;;;;;5114142;28;20091;-74
2022/07/21 04:28:07;;;;;;;20.15;11.68;;;20.20;83.40;;;;;;5114129;28;20035;-74
2022/07/21 04:30:33;;;;;;;18.52;11.35;;;20.10;83.40;;;;;;5114135;28;20027;-74
2022/07/21 04:32:59;;;;;;;18.88;11.52;;;20.10;83.50;;;;;;5114101;28;20044;-74
2022/07/21 04:35:24;;;;;;;20.55;12.02;;;20.10;83.50;;;;;;5114090;28;20058;-74
2022/07/21 04:37:50;;;;;;;23.15;12.38;;;20.10;83.40;;;;;;5114014;28;20039;-74
2022/07/21 04:40:16;;;;;;;20.63;11.52;;;20.20;83.20;;;;;;5113981;28;20023;-74
2022/07/21 04:42:43;;;;;;;20.98;12.18;;;20.20;82.90;;;;;;5113914;28;20085;-74
2022/07/21 04:45:10;;;;;;;18.88;11.60;;;20.20;83.10;;;;;;5113905;28;20027;-74
2022/07/21 04:48:03;;;;;;;18.83;12.02;;;20.20;83.10;;;;;;5113780;28;20379;-74
2022/07/21 04:50:29;;;;;;;17.73;11.05;;;20.30;83.20;;;;;;5110463;28;20036;-74
2022/07/21 04:52:55;;;;;;;20.95;11.60;;;20.30;82.90;;;;;;5113715;28;20020;-74
2022/07/21 04:55:21;;;;;;;18.85;11.55;;;20.30;82.60;;;;;;5113727;28;20062;-74
2022/07/21 04:57:49;;;;;;;20.00;11.40;;;20.50;82.40;;;;;;5113722;28;20444;-74
2022/07/21 05:00:18;;;;;;;22.52;12.10;;;20.50;82.00;;;;;;5095896;28;20088;-74
2022/07/21 05:02:45;;;;;;;22.08;12.55;;;20.50;82.00;;;;;;5113664;28;20107;-74
2022/07/21 05:05:11;;;;;;;20.67;11.95;;;20.50;82.10;;;;;;5113412;28;20053;-74
2022/07/21 05:07:36;;;;;;;20.40;12.15;;;20.50;82.70;;;;;;5095676;28;20099;-74
2022/07/21 05:10:10;;;;;;;21.48;12.35;;;20.50;82.00;;;;;;5113573;28;20024;-74
2022/07/21 05:12:37;;;;;;;19.23;12.10;;;20.60;82.10;;;;;;5113534;28;20020;-74
2022/07/21 05:15:05;;;;;;;19.95;11.68;;;20.60;82.00;;;;;;5113508;28;20028;-74
2022/07/21 05:17:30;;;;;;;20.10;12.05;;;20.60;82.10;;;;;;5113487;28;20039;-74
2022/07/21 05:19:56;;;;;;;21.15;12.30;;;20.60;82.00;;;;;;5113611;28;20032;-74
2022/07/21 05:22:22;;;;;;;20.23;11.73;;;20.60;82.90;;;;;;5095729;28;20035;-74
2022/07/21 05:24:47;;;;;;;20.73;12.70;;;20.60;82.90;;;;;;5113443;28;20470;-74
2022/07/21 05:27:13;;;;;;;20.63;11.93;;;20.60;81.90;;;;;;5113346;28;20024;-75
2022/07/21 05:29:38;;;;;;;17.35;11.27;;;20.60;81.80;;;;;;5113346;28;20522;-74
2022/07/21 05:32:04;;;;;;;18.85;11.35;;;20.70;81.60;;;;;;5113388;28;20017;-74
2022/07/21 05:34:30;;;;;;;19.88;12.10;;;20.70;81.40;;;;;;5095425;28;20503;-74
2022/07/21 05:36:55;;;;;;;24.48;12.52;;;20.70;81.50;;;;;;5113351;28;20032;-74
2022/07/21 05:39:21;;;;;;;20.95;12.40;;;20.70;81.50;;;;;;5113302;28;20044;-74
2022/07/21 05:41:47;;;;;;;19.17;11.23;;;20.70;81.40;;;;;;5113289;28;20084;-74
2022/07/21 05:44:13;;;;;;;21.95;11.52;;;20.70;81.60;;;;;;5113287;28;20070;-75
2022/07/21 05:46:38;;;;;;;22.02;11.90;;;20.60;81.50;;;;;;5095337;28;20032;-74
2022/07/21 05:49:04;;;;;;;20.67;11.30;;;20.60;81.40;;;;;;5113233;28;20085;-74
2022/07/21 05:51:29;;;;;;;19.70;11.32;;;20.60;81.60;;;;;;5113227;28;20027;-74
2022/07/21 05:53:55;;;;;;;15.07;10.13;;;20.60;82.10;;;;;;5113167;28;20035;-74
2022/07/21 05:56:21;;;;;;;19.02;10.90;;;20.50;81.20;;;;;;5113154;28;20088;-74
2022/07/21 05:58:46;;;;;;;18.95;10.65;;;20.50;81.90;;;;;;5095234;28;20077;-74
2022/07/21 06:01:12;;;;;;;16.17;10.15;;;20.50;81.70;;;;;;5113220;28;20028;-74
2022/07/21 06:03:49;;;;;;;18.15;9.52;;;20.50;81.70;;;;;;5116485;28;20062;-75
2022/07/21 06:06:17;;;;;;;15.45;8.95;;;20.60;81.60;;;;;;5116672;28;20054;-75
2022/07/21 06:08:44;;;;;;;15.52;9.13;;;20.50;81.30;;;;;;5116858;28;20024;-75
2022/07/21 06:11:11;;;;;;;17.80;9.38;;;20.50;81.50;;;;;;5116766;28;20399;-74
2022/07/21 06:13:38;;;;;;;13.13;9.10;;;20.50;81.30;;;;;;5098045;28;20028;-75
2022/07/21 06:16:04;;;;;;;16.25;9.50;;;20.60;81.10;;;;;;5116727;28;20028;-75
2022/07/21 06:18:30;;;;;;;14.50;9.30;;;20.60;81.50;;;;;;5116693;28;20031;-74
2022/07/21 06:20:55;;;;;;;16.20;9.52;;;20.60;81.40;;;;;;5116642;28;20382;-74
2022/07/21 06:23:21;;;;;;;26.15;9.05;;;20.60;81.40;;;;;;5116715;28;20035;-74
2022/07/21 06:25:48;;;;;;;13.95;9.13;;;20.60;81.20;;;;;;5116431;28;20062;-74
2022/07/21 06:28:13;;;;;;;18.00;9.50;;;20.50;81.30;;;;;;5116412;28;20020;-74
2022/07/21 06:30:39;;;;;;;19.55;9.48;;;20.50;81.20;;;;;;5116363;28;20033;-74
2022/07/21 06:33:05;;;;;;;19.05;9.98;;;20.50;81.40;;;;;;5116337;28;20050;-75
2022/07/21 06:35:30;;;;;;;16.98;10.02;;;20.50;81.00;;;;;;5116320;28;20073;-75
2022/07/21 06:37:56;;;;;;;19.13;10.55;;;20.50;80.90;;;;;;5116332;28;20035;-74
2022/07/21 06:40:22;;;;;;;17.50;10.13;;;20.50;80.70;;;;;;5098462;28;20083;-74
2022/07/21 06:42:49;;;;;;;18.15;10.75;;;20.50;80.80;;;;;;5098329;28;20035;-74
2022/07/21 06:45:14;;;;;;;18.10;9.52;;;20.50;80.90;;;;;;5116197;28;20028;-74
2022/07/21 06:47:40;;;;;;;21.23;10.82;;;20.50;80.90;;;;;;5116012;28;20028;-74
2022/07/21 06:50:07;;;;;;;20.77;10.82;;;20.60;80.90;;;;;;5116055;28;20075;-74
2022/07/21 06:52:33;;;;;;;20.30;11.25;;;20.50;81.20;;;;;;5115976;28;20032;-74
2022/07/21 06:54:59;;;;;;;17.75;10.20;;;20.50;81.00;;;;;;5115995;28;20032;-74
2022/07/21 06:57:25;;;;;;;19.13;10.93;;;20.60;80.90;;;;;;5115947;28;20069;-74
2022/07/21 06:59:51;;;;;;;22.48;11.32;;;20.60;80.80;;;;;;5115881;28;20032;-74
2022/07/21 07:02:16;;;;;;;21.17;10.63;;;20.50;80.70;;;;;;5115866;28;20028;-74
2022/07/21 07:04:43;;;;;;;21.02;11.95;;;20.50;82.00;;;;;;5115773;28;20024;-74
2022/07/21 07:07:09;;;;;;;26.85;13.23;;;20.50;81.30;;;;;;5115490;28;20043;-75
2022/07/21 07:09:35;;;;;;;25.33;12.82;;;20.60;81.00;;;;;;5115687;28;20043;-75
2022/07/21 07:12:03;;;;;;;30.95;13.85;;;20.60;80.40;;;;;;5115629;28;20032;-73
2022/07/21 07:14:30;;;;;;;27.52;13.98;;;20.60;80.60;;;;;;5114919;28;20076;-74
2022/07/21 07:16:56;;;;;;;25.45;13.45;;;20.60;80.40;;;;;;5115581;28;20024;-74
2022/07/21 07:19:22;;;;;;;24.98;13.98;;;20.60;80.80;;;;;;5115500;28;20032;-74
2022/07/21 07:21:47;;;;;;;26.70;13.30;;;20.60;81.00;;;;;;5115467;28;20032;-74
2022/07/21 07:24:13;;;;;;;26.90;13.93;;;20.70;81.20;;;;;;5115437;28;20024;-74
2022/07/21 07:26:39;;;;;;;28.83;13.52;;;20.80;81.20;;;;;;5115311;28;20055;-73
2022/07/21 07:29:04;;;;;;;28.20;13.98;;;21.00;81.90;;;;;;5080518;28;20024;-74
2022/07/21 07:31:30;;;;;;;28.52;14.02;;;21.00;80.70;;;;;;5115314;28;20033;-74
2022/07/21 07:33:57;;;;;;;24.02;13.15;;;21.10;80.80;;;;;;5115253;28;20020;-74
2022/07/21 07:36:26;;;;;;;27.25;14.23;;;21.10;80.00;;;;;;5115179;28;20021;-74
2022/07/21 07:38:53;;;;;;;23.65;13.15;;;21.00;80.20;;;;;;5115132;28;20028;-74
2022/07/21 07:41:19;;;;;;;24.50;12.63;;;21.00;80.30;;;;;;5115082;28;20028;-74
2022/07/21 07:43:45;;;;;;;22.27;12.52;;;21.10;80.40;;;;;;5115048;28;20051;-74
2022/07/21 07:46:10;;;;;;;22.20;12.73;;;21.10;79.70;;;;;;5114929;28;20058;-74
2022/07/21 07:48:37;;;;;;;24.40;13.32;;;21.10;80.30;;;;;;5097089;28;20032;-74
2022/07/21 07:51:03;;;;;;;22.63;12.82;;;21.10;79.70;;;;;;5096904;28;20029;-74
2022/07/21 07:53:28;;;;;;;21.35;12.13;;;21.10;79.70;;;;;;5114855;28;20071;-74
2022/07/21 07:55:55;;;;;;;23.15;12.35;;;21.00;79.20;;;;;;5114922;28;20032;-74
2022/07/21 07:58:20;;;;;;;23.48;12.10;;;21.00;79.30;;;;;;5114702;28;20028;-74
2022/07/21 08:00:46;;;;;;;22.13;11.90;;;20.90;79.10;;;;;;5114691;28;20039;-74
2022/07/21 08:03:12;;;;;;;20.50;11.75;;;20.90;79.30;;;;;;5114640;28;20024;-74
2022/07/21 08:05:38;;;;;;;23.80;12.32;;;20.90;79.00;;;;;;5114330;28;20066;-74
2022/07/21 08:08:04;;;;;;;28.02;12.75;;;21.00;79.30;;;;;;5114545;28;20028;-74
2022/07/21 08:10:30;;;;;;;25.25;12.57;;;21.10;79.00;;;;;;5114470;28;20024;-74
2022/07/21 08:12:55;;;;;;;18.92;11.50;;;21.10;78.90;;;;;;5114448;28;20020;-74
2022/07/21 08:15:21;;;;;;;21.42;12.15;;;21.10;79.50;;;;;;5114452;28;20042;-74
2022/07/21 08:17:47;;;;;;;21.55;12.35;;;21.30;79.30;;;;;;5114391;28;20035;-74
2022/07/21 08:20:12;;;;;;;22.20;11.90;;;21.30;78.50;;;;;;5114291;28;20036;-74
2022/07/21 08:22:38;;;;;;;22.45;12.18;;;21.20;78.60;;;;;;5096353;28;20050;-74
2022/07/21 08:25:04;;;;;;;24.38;11.77;;;21.10;78.80;;;;;;5095859;28;20032;-74
2022/07/21 08:27:30;;;;;;;22.15;12.85;;;21.10;79.30;;;;;;5113707;28;20035;-74
2022/07/21 08:29:56;;;;;;;21.38;11.77;;;21.10;79.50;;;;;;5114134;28;20021;-74
2022/07/21 08:32:21;;;;;;;21.80;12.05;;;21.20;79.00;;;;;;5114228;28;20021;-74
2022/07/21 08:34:47;;;;;;;25.92;12.82;;;21.20;79.40;;;;;;5096258;28;20043;-74
2022/07/21 08:37:13;;;;;;;23.80;11.35;;;21.20;80.90;;;;;;5114060;28;20077;-74
2022/07/21 08:39:39;;;;;;;22.58;12.35;;;21.30;80.90;;;;;;5096192;28;20096;-74
2022/07/21 08:42:08;;;;;;;21.65;11.30;;;21.30;79.40;;;;;;5114135;28;20028;-74
2022/07/21 08:44:34;;;;;;;24.23;11.52;;;21.30;78.90;;;;;;5113977;28;20058;-74
2022/07/21 08:47:00;;;;;;;18.63;10.68;;;21.20;78.90;;;;;;5113816;28;20043;-74
2022/07/21 08:49:27;;;;;;;20.70;10.35;;;21.20;78.90;;;;;;5113847;28;20111;-74
2022/07/21 08:51:52;;;;;;;14.48;8.35;;;21.10;79.40;;;;;;5113832;28;20024;-74
2022/07/21 08:54:20;;;;;;;10.32;6.30;;;21.10;80.00;;;;;;5113806;28;20045;-74
2022/07/21 08:56:47;;;;;;;7.68;4.50;;;21.20;78.60;;;;;;5113776;28;20024;-74
2022/07/21 08:59:12;;;;;;;8.85;4.32;;;21.00;78.70;;;;;;5113691;28;20096;-74
2022/07/21 09:01:38;;;;;;;8.52;4.57;;;21.00;78.90;;;;;;5113694;28;20028;-74
2022/07/21 09:04:40;;;;;;;6.20;4.00;;;21.00;79.80;;;;;;5113726;28;20032;-74
2022/07/21 09:07:07;;;;;;;6.53;4.03;;;20.90;80.90;;;;;;5011872;28;20042;-74
2022/07/21 09:09:34;;;;;;;6.90;4.10;;;20.80;80.70;;;;;;5077076;28;20028;-75
2022/07/21 09:12:01;;;;;;;9.60;4.53;;;20.70;81.60;;;;;;5113614;28;20031;-75
2022/07/21 09:14:31;;;;;;;8.52;4.97;;;20.70;82.60;;;;;;5113525;28;20026;-75
2022/07/21 09:17:00;;;;;;;8.40;5.22;;;20.70;82.30;;;;;;5095740;28;20035;-75
2022/07/21 09:19:35;;;;;;;9.45;5.90;;;20.60;82.90;;;;;;5113517;28;20040;-75
2022/07/21 09:22:03;;;;;;;9.93;5.60;;;20.60;84.20;;;;;;5113705;28;20028;-75
2022/07/21 09:24:39;;;;;;;9.85;5.40;;;20.60;83.60;;;;;;5113440;28;20115;-75
2022/07/21 09:27:06;;;;;;;10.55;5.18;;;20.50;84.40;;;;;;5113374;28;20048;-75
2022/07/21 09:29:45;;;;;;;8.52;4.85;;;20.50;84.70;;;;;;5113326;28;20084;-75
2022/07/21 09:32:24;;;;;;;9.15;4.95;;;20.60;84.60;;;;;;5113578;28;20024;-75
2022/07/21 09:34:54;;;;;;;7.43;4.93;;;20.50;84.50;;;;;;5113367;28;20019;-75
2022/07/21 09:37:22;;;;;;;7.55;4.53;;;20.60;84.40;;;;;;5114726;28;20016;-75
2022/07/21 09:39:49;;;;;;;7.20;4.57;;;20.50;84.30;;;;;;5117427;28;20066;-75
2022/07/21 09:42:17;;;;;;;5.97;3.85;;;20.50;85.70;;;;;;5117382;28;20463;-75
2022/07/21 09:44:47;;;;;;;7.72;4.00;;;20.50;85.10;;;;;;5117369;28;20084;-75
2022/07/21 09:47:15;;;;;;;7.10;3.95;;;20.50;85.50;;;;;;5099344;28;20028;-75
2022/07/21 09:49:42;;;;;;;8.20;4.88;;;20.50;85.10;;;;;;5117266;28;20017;-75
2022/07/21 09:52:32;;;;;;;6.20;4.50;;;20.50;85.30;;;;;;5117218;28;20042;-75
2022/07/21 09:55:09;;;;;;;7.90;4.03;;;20.40;86.30;;;;;;5117201;28;20083;-75
2022/07/21 09:57:35;;;;;;;6.25;3.97;;;20.30;86.40;;;;;;5117139;28;20049;-75
2022/07/21 10:00:04;;;;;;;5.78;3.95;;;20.30;86.30;;;;;;5117082;28;20546;-75
2022/07/21 10:02:32;;;;;;;7.65;4.20;;;20.30;86.30;;;;;;5117037;28;20045;-75
2022/07/21 10:04:59;;;;;;;7.68;4.28;;;20.30;86.50;;;;;;5116794;28;20024;-75
2022/07/21 10:07:27;;;;;;;5.57;3.90;;;20.30;86.50;;;;;;5116813;28;20035;-75
2022/07/21 10:09:54;;;;;;;5.15;3.55;;;20.20;86.60;;;;;;5116883;28;20091;-75
2022/07/21 10:12:21;;;;;;;7.55;4.05;;;20.30;86.50;;;;;;5116982;28;20016;-75
2022/07/21 10:14:47;;;;;;;6.10;3.95;;;20.30;86.50;;;;;;5116773;28;20027;-75
2022/07/21 10:17:14;;;;;;;5.45;4.00;;;20.30;86.50;;;;;;5116766;28;20020;-75
2022/07/21 10:20:08;;;;;;;7.63;4.15;;;20.30;86.80;;;;;;5098900;28;20028;-75
2022/07/21 10:22:57;;;;;;;6.03;4.13;;;20.40;86.80;;;;;;5104222;28;20034;-75
2022/07/21 10:25:23;;;;;;;5.95;4.03;;;20.40;86.70;;;;;;5116642;28;20092;-75
2022/07/21 10:28:10;;;;;;;7.63;4.20;;;20.40;86.40;;;;;;5116397;28;20055;-75
2022/07/21 10:30:47;;;;;;;6.82;4.30;;;20.40;86.90;;;;;;5116641;28;20020;-75
2022/07/21 10:33:15;;;;;;;6.03;4.25;;;20.40;86.60;;;;;;5116472;28;20020;-75
2022/07/21 10:35:44;;;;;;;6.15;4.05;;;20.40;86.30;;;;;;5116350;28;20028;-75
2022/07/21 10:38:29;;;;;;;6.70;4.45;;;20.40;86.40;;;;;;5116368;28;20077;-74
2022/07/21 10:40:56;;;;;;;7.43;4.85;;;20.30;85.90;;;;;;5116374;28;20016;-74
2022/07/21 10:43:25;;;;;;;5.75;4.20;;;20.30;86.00;;;;;;5116238;28;20053;-74
2022/07/21 10:45:53;;;;;;;7.05;4.70;;;20.30;85.80;;;;;;5116125;28;20025;-74
2022/07/21 10:48:37;;;;;;;6.40;4.68;;;20.20;85.80;;;;;;5115522;28;20024;-74
2022/07/21 10:51:16;;;;;;;6.82;4.38;;;20.20;85.80;;;;;;5116108;28;20040;-74
2022/07/21 10:53:46;;;;;;;6.00;4.45;;;20.20;85.50;;;;;;5116023;28;20031;-73
2022/07/21 10:56:31;;;;;;;5.68;4.28;;;20.20;85.20;;;;;;5116014;28;20020;-74
2022/07/21 10:58:56;;;;;;;7.03;4.40;;;20.20;85.40;;;;;;5115992;28;20107;-74
2022/07/21 11:01:27;;;;;;;5.43;4.38;;;20.20;85.30;;;;;;5115863;28;20042;-74
2022/07/21 11:04:10;;;;;;;6.28;4.85;;;20.20;85.30;;;;;;5115863;28;20032;-74
2022/07/21 11:06:40;;;;;;;5.20;3.88;;;20.20;85.70;;;;;;5115565;28;20078;-74
2022/07/21 11:09:14;;;;;;;7.90;4.10;;;20.20;85.30;;;;;;5115719;28;20529;-74
2022/07/21 11:11:58;;;;;;;6.53;4.30;;;20.20;85.20;;;;;;5115910;28;20029;-73
2022/07/21 11:14:49;;;;;;;5.82;4.20;;;20.10;85.10;;;;;;5115687;28;20022;-74
2022/07/21 11:17:28;;;;;;;6.57;4.43;;;20.20;85.40;;;;;;5115585;28;20028;-74
2022/07/21 11:19:54;;;;;;;6.10;4.60;;;20.10;85.40;;;;;;5115568;28;20049;-72
2022/07/21 11:22:23;;;;;;;6.30;4.90;;;20.00;85.30;;;;;;5115486;28;20495;-74
2022/07/21 11:24:51;;;;;;;6.85;4.50;;;20.10;85.40;;;;;;5097591;28;20024;-74
2022/07/21 11:27:23;;;;;;;9.07;4.47;;;20.10;85.50;;;;;;5115305;28;20088;-74
2022/07/21 11:29:50;;;;;;;7.45;4.38;;;20.00;85.50;;;;;;5115302;28;20028;-74
2022/07/21 11:32:17;;;;;;;6.65;4.97;;;20.10;85.70;;;;;;5115263;28;20026;-74
2022/07/21 11:34:49;;;;;;;9.07;5.30;;;20.10;85.80;;;;;;5115236;28;20024;-74
2022/07/21 11:37:18;;;;;;;7.30;4.97;;;20.10;86.20;;;;;;5115177;28;20024;-74
2022/07/21 11:39:44;;;;;;;7.78;5.47;;;20.00;86.30;;;;;;5115125;28;20020;-74
2022/07/21 11:42:13;;;;;;;7.95;5.25;;;20.00;87.60;;;;;;5115253;28;20074;-74
2022/07/21 11:44:40;;;;;;;9.70;5.88;;;20.00;86.40;;;;;;5115064;28;20016;-74
2022/07/21 11:47:09;;;;;;;7.47;5.65;;;20.00;86.30;;;;;;5114940;28;20024;-74
2022/07/21 11:49:35;;;;;;;9.07;6.22;;;20.00;86.80;;;;;;5114946;28;20030;-73
2022/07/21 11:52:02;;;;;;;10.80;6.25;;;20.00;86.20;;;;;;5114935;28;20024;-72
2022/07/21 11:54:35;;;;;;;9.32;5.38;;;20.00;86.40;;;;;;5114878;28;20020;-73
2022/07/21 11:57:03;;;;;;;10.38;6.30;;;20.00;86.20;;;;;;5114708;28;20035;-74
2022/07/21 11:59:29;;;;;;;11.30;5.90;;;20.10;86.40;;;;;;5096755;28;20047;-74
2022/07/21 12:02:09;;;;;;;10.38;6.43;;;20.10;85.80;;;;;;5114675;28;20050;-73
2022/07/21 12:04:52;;;;;;;10.50;6.38;;;20.00;85.70;;;;;;5114856;28;20039;-73
2022/07/21 12:07:18;;;;;;;9.82;6.82;;;20.00;86.10;;;;;;5114463;28;20089;-72
2022/07/21 12:09:46;;;;;;;10.50;6.22;;;20.10;86.10;;;;;;5114543;28;20024;-73
2022/07/21 12:12:12;;;;;;;8.35;5.93;;;20.10;86.00;;;;;;5114551;28;20028;-74
2022/07/21 12:14:50;;;;;;;8.93;6.75;;;20.00;85.50;;;;;;5114470;28;20072;-74
2022/07/21 12:17:36;;;;;;;10.10;6.72;;;20.00;85.50;;;;;;5114387;28;20040;-74
2022/07/21 12:20:06;;;;;;;11.48;6.50;;;20.00;86.00;;;;;;5114449;28;20024;-74
2022/07/21 12:22:46;;;;;;;10.60;6.43;;;19.90;85.70;;;;;;5114445;28;20020;-74
2022/07/21 12:25:13;;;;;;;10.52;6.82;;;19.90;85.70;;;;;;5114295;28;20028;-74
2022/07/21 12:27:41;;;;;;;10.82;7.03;;;19.90;85.80;;;;;;5114194;28;20023;-73
2022/07/21 12:30:09;;;;;;;11.52;6.75;;;20.00;86.00;;;;;;5114139;28;20016;-73
2022/07/21 12:32:44;;;;;;;10.23;6.90;;;20.00;86.00;;;;;;5114190;28;20021;-74
2022/07/21 12:35:21;;;;;;;12.45;7.38;;;20.00;85.70;;;;;;5114143;28;20067;-75
2022/07/21 12:37:56;;;;;;;12.20;7.20;;;20.00;85.60;;;;;;5096887;28;20032;-74
2022/07/21 12:40:22;;;;;;;10.45;6.60;;;20.00;86.10;;;;;;5114019;28;20052;-74
2022/07/21 12:42:48;;;;;;;11.32;7.05;;;19.90;85.90;;;;;;5113998;28;20027;-74